Meteo Giornale » Osservazioni meteo Bolivia » La Paz-Alto
ore: 22:00 - Osservazioni Meteo La Paz-Alto
Lat. 16° 31' S Lon. 68° 11' W Alt. 4058 metri s.l.m.
10 °C
Sereno
Temp. 24 Ore
2 °C
18 °C
Nord
3.7 Km/h
Dew point -15 °C
Umidità 15 %
Visibilità 10 Km
Il sole sorge alle ore 06:39
Il sole tramonta alle ore 18:26
| Data e Ora | Cielo e Fenomeni | T °C | DP °C | Um. % | Pres. hPa | Vis. km | Vento km/h | |
|---|---|---|---|---|---|---|---|---|
| Oggi h: 22:00 | Sereno | 10 | -15 | 15 | 1039 | 10 | N 3.7 | |
| Oggi h: 21:00 | Sereno | 11 | -10 | 21 | 1039 | 10 | O/SO 9.3 | |
| Oggi h: 20:00 | Sereno | 11 | -8 | 25 | 1037 | 10 | O 13 | |
| Oggi h: 19:00 | Sereno | 13 | -12 | 16 | 1036 | 10 | O 14.8 | |
| Oggi h: 18:00 | Sereno | 15 | -14 | 12 | 1036 | 10 | O/NO 13 | |
| Oggi h: 17:00 | Sereno | 17 | -11 | 13 | 1036 | 10 | O 14.8 | |
| Oggi h: 16:00 | Sereno | 17 | -10 | 14 | 1036 | 10 | O 16.7 | |
| Oggi h: 15:00 | Sereno | 18 | -10 | 13 | 1037 | 10 | O/NO 20.3 | |
| Oggi h: 14:00 | Sereno | 17 | -12 | 12 | 1038 | 10 | O 20.3 | |
| Oggi h: 13:00 | Sereno | 17 | -13 | 11 | 1039 | 10 | O/NO 24 | |
| Oggi h: 12:00 | Sereno | 15 | -10 | 16 | 1040 | 10 | O/NO 20.3 | |
| Oggi h: 11:00 | Sereno | 14 | -11 | 16 | 1040 | 10 | O 13 | |
| Oggi h: 10:00 | Sereno | 12 | -10 | 20 | 1040 | 10 | O 16.7 | |
| Oggi h: 09:00 | Sereno | 10 | -9 | 25 | 1040 | 10 | O/NO 11.1 | |
| Oggi h: 08:00 | Sereno | 9 | -8 | 29 | 1039 | 10 | N 3.7 | |
| Oggi h: 07:36 | Sereno | 7 | -9 | 30 | 1039 | 10 | N 3.7 | |
| Oggi h: 07:00 | Sereno | 4 | -10 | 35 | 1038 | 10 | N 9.3 | |
| Oggi h: 06:00 | Sereno | 4 | -9 | 38 | 1038 | 10 | N 9.3 | |
| Oggi h: 05:00 | Sereno | 4 | -7 | 44 | 1037 | 10 | N 7.4 | |
| Oggi h: 04:00 | Sereno | 4 | -7 | 44 | 1038 | 10 | N 7.4 | |
| Oggi h: 03:00 | Sereno | 4 | -7 | 44 | 1038 | 10 | N 7.4 | |
| Oggi h: 02:00 | Poco Nuvoloso | 3 | -6 | 51 | 1038 | 10 | N 3.7 | |
| Oggi h: 01:00 | Poco Nuvoloso | 2 | -1 | 80 | 1039 | 10 | N 3.7 | |
| Oggi h: 00:00 | Poco Nuvoloso | 4 | 3 | 93 | 1039 | 10 | NE 7.4 | |
| Ieri h: 23:00 | Banco di nebbia | 5 | 4 | 93 | 1039 | 4 | E/NE 13 | |



